Saturday, December 15, 2018, 10:36 PM EST
Back to Local

KWST, Westerly State Airport

Location: Westerly, RI, United States Lat: 41.35
Local Time: 10:36 PM EST ( 3:36 GMT) Lon: -71.8
Time Zone: US/Eastern Elev: 82 ft

Show me the last for .
Show Decoded

2018-12-15 21:53 METAR KWST 160253Z AUTO 06011KT 10SM CLR 08/04 A3020 RMK AO2 SLP228 T00780039
                 51017 =
2018-12-15 20:53 METAR KWST 160153Z AUTO 05010G19KT 10SM CLR 08/04 A3018 RMK AO2 SLP219 T00830039
                 =
2018-12-15 19:53 METAR KWST 160053Z AUTO 05009KT 010V080 10SM CLR 09/06 A3019 RMK AO2 SLP223
                 T00940061 =
2018-12-15 18:53 METAR KWST 152353Z AUTO VRB05KT 10SM CLR 11/06 A3015 RMK AO2 SLP210 T01060061
                 10128 20106 53010 =
2018-12-15 17:53 METAR KWST 152253Z AUTO 04007KT 10SM CLR 11/07 A3010 RMK AO2 SLP194 T01110067 =
2018-12-15 16:53 METAR KWST 152153Z AUTO 03005KT 10SM CLR 11/08 A3012 RMK AO2 SLP199 T01110083 =
2018-12-15 15:53 METAR KWST 152053Z AUTO 03004KT 10SM CLR 12/09 A3012 RMK AO2 SLP199 T01220094
                 53000 =
2018-12-15 14:53 METAR KWST 151953Z AUTO 03003KT 10SM CLR 13/11 A3012 RMK AO2 SLP197 T01280106 =
2018-12-15 13:53 METAR KWST 151853Z AUTO 00000KT 10SM OVC040 13/12 A3011 RMK AO2 SLP194 T01280117
                 =
2018-12-15 13:18 METAR KWST 151818Z AUTO 03003KT 10SM SCT003 SCT036 OVC044 13/11 A3012 RMK AO2
                 T01280111 =
2018-12-15 13:05 METAR KWST 151805Z AUTO 36004KT 9SM BKN003 OVC035 12/11 A3012 RMK AO2 T01220111
                 =
2018-12-15 12:53 METAR KWST 151753Z AUTO 00000KT 7SM BKN002 OVC035 12/11 A3012 RMK AO2 SLP199
                 60000 T01220111 10122 20089 56022 =
2018-12-15 12:51 METAR KWST 151751Z AUTO 00000KT 7SM BKN002 OVC035 12/11 A3012 RMK AO2 =
2018-12-15 12:39 METAR KWST 151739Z AUTO 00000KT 7SM SCT002 OVC036 12/11 A3012 RMK AO2 T01170111
                 =
2018-12-15 12:22 METAR KWST 151722Z AUTO 00000KT 6SM BR FEW002 BKN027 OVC035 12/11 A3013 RMK AO2
                 T01170111 =
2018-12-15 11:53 METAR KWST 151653Z AUTO 00000KT 9SM OVC024 11/10 A3014 RMK AO2 RAE1554 SLP206
                 P0000 T01110100 =
2018-12-15 11:30 METAR KWST 151630Z AUTO 03003KT 5SM BR OVC024 11/10 A3015 RMK AO2 RAE1554 P0000
                 T01060100 =
2018-12-15 10:53 METAR KWST 151553Z AUTO 01003KT 2SM -RA BR BKN015 OVC021 11/10 A3019 RMK AO2
                 RAE03B41 SLP222 P0000 T01060100 =
2018-12-15 10:42 METAR KWST 151542Z AUTO 36003KT 2 1/2SM -RA BR OVC015 10/10 A3020 RMK AO2
                 RAE03B41 P0000 T01000100 =
2018-12-15 09:53 METAR KWST 151453Z AUTO 00000KT 5SM -RA BR OVC011 10/09 A3021 RMK AO2 RAB50
                 SLP232 P0000 60000 T01000089 53004 =
2018-12-15 08:53 METAR KWST 151353Z AUTO 00000KT 3SM BR OVC014 10/09 A3020 RMK AO2 SLP226
                 T01000094 =
2018-12-15 08:33 METAR KWST 151333Z AUTO 00000KT 1 1/4SM BR OVC014 09/09 A3019 RMK AO2 VIS 1/2V5
                 T00940089 =
2018-12-15 07:53 METAR KWST 151253Z AUTO 00000KT 6SM BR OVC019 10/09 A3020 RMK AO2 SLP227
                 T01000094 =
2018-12-15 07:43 METAR KWST 151243Z AUTO 35005KT 2SM BR OVC019 09/09 A3021 RMK AO2 VIS 1V3 PRESRR
                 T00940089 =
2018-12-15 07:19 METAR KWST 151219Z AUTO 36003KT 3/4SM BR OVC021 09/08 A3019 RMK AO2 T00890083 =
2018-12-15 06:53 METAR KWST 151153Z AUTO 00000KT 2 1/2SM BR OVC021 09/09 A3020 RMK AO2 VIS 1
                 1/4V5 SLP225 60001 70001 T00940094 10106 20094 55002 =
2018-12-15 06:46 METAR KWST 151146Z AUTO 00000KT 3SM BR OVC021 09/09 A3020 RMK AO2 T00940094 =
2018-12-15 06:13 METAR KWST 151113Z AUTO 00000KT 1 1/2SM BR FEW002 OVC024 10/09 A3020 RMK AO2
                 T01000094 =
2018-12-15 06:05 METAR KWST 151105Z AUTO 00000KT 3/4SM BR SCT002 OVC024 09/09 A3020 RMK AO2
                 T00940089 =
2018-12-15 05:53 METAR KWST 151053Z AUTO 20003KT 1/2SM FG BKN002 OVC024 09/09 A3018 RMK AO2
                 SLP221 T00940089 =
2018-12-15 05:38 METAR KWST 151038Z AUTO 00000KT 1/2SM FG VV002 10/09 A3020 RMK AO2 T01000094 =
2018-12-15 04:53 METAR KWST 150953Z AUTO 22003KT 1/4SM FG VV002 09/09 A3020 RMK AO2 RAE21 SLP225
                 P0000 T00940094 =
2018-12-15 04:36 METAR KWST 150936Z AUTO 23004KT 1/4SM FG VV002 09/09 A3020 RMK AO2 RAE21 P0000
                 T00940089 =
2018-12-15 03:53 METAR KWST 150853Z AUTO VRB03KT 3/4SM -RA BR VV002 09/09 A3020 RMK AO2 SLP228
                 P0000 60001 T00940094 58010 =
2018-12-15 02:59 METAR KWST 150759Z AUTO 22003KT 3/4SM -RA BR VV002 10/09 A3023 RMK AO2 P0000
                 T01000094 =
2018-12-15 02:53 METAR KWST 150753Z AUTO 23003KT 1SM -RA BR VV003 10/09 A3023 RMK AO2 RAB15
                 SLP238 P0001 T01000094 =
2018-12-15 02:50 METAR KWST 150750Z AUTO 23004KT 1 1/4SM -RA BR OVC003 10/09 A3023 RMK AO2 RAB15
                 P0000 =
2018-12-15 02:11 METAR KWST 150711Z AUTO 23003KT 1 3/4SM BR OVC002 10/09 A3023 RMK AO2 T01000094
                 =
2018-12-15 01:53 METAR KWST 150653Z AUTO 24003KT 6SM BR OVC002 11/10 A3023 RMK AO2 RAE51 SLP238
                 P0000 T01060100 =
2018-12-15 00:53 METAR KWST 150553Z AUTO 23004KT 3SM -RA BR OVC002 10/09 A3024 RMK AO2 RAB06
                 SLP241 P0000 60000 T01000094 10106 20083 56018 =
2018-12-15 00:36 METAR KWST 150536Z AUTO 22004KT 4SM -RA BR OVC002 10/09 A3025 RMK AO2 RAB06
                 P0000 T01000094 =
2018-12-14 23:53 METAR KWST 150453Z AUTO 22005KT 8SM OVC003 11/09 A3025 RMK AO2 SLP245 T01060094
                 401061011 =
2018-12-14 23:30 METAR KWST 150430Z AUTO 22005KT 7SM OVC003 10/09 A3026 RMK AO2 T01000094 =
2018-12-14 23:09 METAR KWST 150409Z AUTO 22006KT 8SM OVC002 10/09 A3027 RMK AO2 T01000089 =
2018-12-14 22:53 METAR KWST 150353Z AUTO 21005KT 7SM OVC003 10/09 A3028 RMK AO2 SLP254 T01000094
                 =

Support USWX by starting your Amazon purchase here.